Time;durP1;ratioP1;P1;durP2;ratioP2;P2;SDS_P1;SDS_P2;PMS_P1;PMS_P2;Temp;Humidity;BMP_temperature;BMP_pressure;BME280_temperature;BME280_humidity;BME280_pressure;Samples;Min_cycle;Max_cycle;Signal;HPM_P1;HPM_P2
2022/01/09 00:00:47;;;;;;;;;69.00;54.00;18.80;99.90;;;;;;5056833;28;10054;-72
2022/01/09 00:03:14;;;;;;;;;76.20;61.60;18.70;99.90;;;;;;5056319;28;8761;-72
2022/01/09 00:05:40;;;;;;;;;82.20;68.00;18.70;99.90;;;;;;5056670;28;8868;-72
2022/01/09 00:08:07;;;;;;;;;82.80;69.60;18.70;99.90;;;;;;5056887;28;8758;-72
2022/01/09 00:10:35;;;;;;;;;82.40;72.20;18.80;99.90;;;;;;5056522;28;8836;-71
2022/01/09 00:13:01;;;;;;;;;85.00;72.20;18.70;99.90;;;;;;5057143;28;8872;-72
2022/01/09 00:15:28;;;;;;;;;86.20;78.60;18.70;99.90;;;;;;5056464;28;8770;-72
2022/01/09 00:17:55;;;;;;;;;86.40;77.80;18.50;99.90;;;;;;5056502;28;8738;-72
2022/01/09 00:20:21;;;;;;;;;80.60;69.20;18.70;99.90;;;;;;5055782;28;8777;-71
2022/01/09 00:22:50;;;;;;;;;85.40;78.40;18.70;99.90;;;;;;5056654;28;8891;-72
2022/01/09 00:25:19;;;;;;;;;85.20;74.40;18.50;99.90;;;;;;5039499;28;8719;-69
2022/01/09 00:27:46;;;;;;;;;82.40;72.20;18.50;99.90;;;;;;5056480;28;8749;-72
2022/01/09 00:30:15;;;;;;;;;85.60;75.20;18.60;99.90;;;;;;5056393;28;8741;-72
2022/01/09 00:32:42;;;;;;;;;100.40;88.00;18.70;99.90;;;;;;5071968;28;8745;-72
2022/01/09 00:35:09;;;;;;;;;88.80;82.40;18.90;99.90;;;;;;5055977;28;9103;-72
2022/01/09 00:37:35;;;;;;;;;92.80;89.80;18.90;99.90;;;;;;5056229;28;8757;-71
2022/01/09 00:40:03;;;;;;;;;84.40;74.60;19.00;99.90;;;;;;5055658;28;8792;-72
2022/01/09 00:42:30;;;;;;;;;82.20;71.60;18.80;99.90;;;;;;5054841;28;8758;-71
2022/01/09 00:44:56;;;;;;;;;83.00;74.80;18.90;99.90;;;;;;5056344;28;8753;-71
2022/01/09 00:47:23;;;;;;;;;86.20;78.00;19.00;99.90;;;;;;5054763;28;8892;-72
2022/01/09 00:49:50;;;;;;;;;84.80;73.60;19.20;99.90;;;;;;5056144;28;8762;-72
2022/01/09 00:52:18;;;;;;;;;79.80;73.60;19.20;99.90;;;;;;5056148;28;9454;-70
2022/01/09 00:54:44;;;;;;;;;79.20;66.80;19.30;99.90;;;;;;5056331;28;8733;-72
2022/01/09 00:57:11;;;;;;;;;80.60;74.20;19.30;99.90;;;;;;5056269;28;8730;-72
2022/01/09 00:59:38;;;;;;;;;80.40;70.80;19.40;99.90;;;;;;5037591;28;8820;-72
2022/01/09 01:02:04;;;;;;;;;81.40;74.00;19.40;99.90;;;;;;5056152;28;8762;-72
2022/01/09 01:04:31;;;;;;;;;86.00;76.40;19.30;99.90;;;;;;5055406;28;8764;-72
2022/01/09 01:07:01;;;;;;;;;96.60;83.80;19.40;99.90;;;;;;5056612;28;8717;-72
2022/01/09 01:09:30;;;;;;;;;91.60;85.40;19.50;99.90;;;;;;5055540;28;8726;-71
2022/01/09 01:12:01;;;;;;;;;93.80;84.20;19.60;99.90;;;;;;5045198;28;8776;-72
2022/01/09 01:14:28;;;;;;;;;82.80;76.80;19.70;99.90;;;;;;5055461;28;8855;-72
2022/01/09 01:16:55;;;;;;;;;84.20;73.60;19.80;99.90;;;;;;5055094;28;8722;-72
2022/01/09 01:19:22;;;;;;;;;85.80;78.40;19.80;99.90;;;;;;5055600;28;8811;-71
2022/01/09 01:21:48;;;;;;;;;80.00;71.00;20.00;99.90;;;;;;5056170;28;8770;-71
2022/01/09 01:24:17;;;;;;;;;80.20;68.00;20.10;99.90;;;;;;5055525;28;8956;-72
2022/01/09 01:26:44;;;;;;;;;78.40;64.40;20.20;99.90;;;;;;5055697;28;9114;-72
2022/01/09 01:29:11;;;;;;;;;78.40;65.60;20.30;99.90;;;;;;5055262;28;8769;-71
2022/01/09 01:31:38;;;;;;;;;79.40;66.20;20.30;99.90;;;;;;5056364;28;8769;-72
2022/01/09 01:34:05;;;;;;;;;75.00;63.80;20.40;99.90;;;;;;5059782;28;8816;-67
2022/01/09 01:36:31;;;;;;;;;101.40;91.60;20.50;99.90;;;;;;5059369;28;8900;-72
2022/01/09 01:38:58;;;;;;;;;106.00;93.40;20.50;99.90;;;;;;5059269;28;9438;-72
2022/01/09 01:41:27;;;;;;;;;94.00;84.40;20.40;99.90;;;;;;5059108;28;8766;-71
2022/01/09 01:43:54;;;;;;;;;85.20;79.00;20.60;99.90;;;;;;5059348;28;8738;-72
2022/01/09 01:46:21;;;;;;;;;77.00;70.40;20.60;99.90;;;;;;5057736;28;8773;-72
2022/01/09 01:48:48;;;;;;;;;79.60;72.00;20.70;99.90;;;;;;5058080;28;9101;-72
2022/01/09 01:51:15;;;;;;;;;87.00;77.20;20.70;99.90;;;;;;5059381;28;8854;-72
2022/01/09 01:53:42;;;;;;;;;82.40;76.60;20.90;99.90;;;;;;5058885;28;8781;-72
2022/01/09 01:56:12;;;;;;;;;81.20;74.40;20.80;99.90;;;;;;5057553;28;8862;-72
2022/01/09 01:58:39;;;;;;;;;74.80;68.40;20.90;99.90;;;;;;5059090;28;8916;-71
2022/01/09 02:01:05;;;;;;;;;72.00;62.80;21.10;99.90;;;;;;5059401;28;8753;-72
2022/01/09 02:03:32;;;;;;;;;75.60;64.80;21.20;99.90;;;;;;5058667;28;8800;-72
2022/01/09 02:05:59;;;;;;;;;77.40;71.00;21.40;99.90;;;;;;5058708;28;8786;-72
2022/01/09 02:08:26;;;;;;;;;71.40;61.00;21.50;99.90;;;;;;5057241;28;8788;-71
2022/01/09 02:10:52;;;;;;;;;71.00;61.80;21.50;99.90;;;;;;5058823;28;9477;-71
2022/01/09 02:13:20;;;;;;;;;71.20;57.60;21.60;99.90;;;;;;5059064;28;8830;-70
2022/01/09 02:15:47;;;;;;;;;70.00;55.80;21.60;99.90;;;;;;5057097;28;8773;-71
2022/01/09 02:18:21;;;;;;;;;72.00;57.40;21.80;99.90;;;;;;5058404;28;8766;-71
2022/01/09 02:20:49;;;;;;;;;56.80;45.60;21.80;99.90;;;;;;5058373;28;8758;-71
2022/01/09 02:23:16;;;;;;;;;72.80;56.40;21.90;99.90;;;;;;5058880;28;8850;-71
2022/01/09 02:25:43;;;;;;;;;68.40;52.40;21.90;99.90;;;;;;5073696;28;8714;-71
2022/01/09 02:28:11;;;;;;;;;70.60;57.20;22.00;99.90;;;;;;5059044;28;8749;-71
2022/01/09 02:30:38;;;;;;;;;58.25;45.50;22.10;99.90;;;;;;5058577;28;8854;-71
2022/01/09 02:33:06;;;;;;;;;61.25;49.00;22.30;99.90;;;;;;5058711;28;8769;-72
2022/01/09 02:35:33;;;;;;;;;58.00;48.25;22.20;99.90;;;;;;5057041;28;8794;-71
2022/01/09 02:38:00;;;;;;;;;60.25;47.25;22.30;99.90;;;;;;5058661;28;8790;-71
2022/01/09 02:40:26;;;;;;;;;60.50;45.75;22.40;99.90;;;;;;5058143;28;8803;-71
2022/01/09 02:42:54;;;;;;;;;62.50;48.25;22.50;99.90;;;;;;5058726;28;8734;-71
2022/01/09 02:45:23;;;;;;;;;65.50;48.50;22.60;99.90;;;;;;5057705;28;9122;-71
2022/01/09 02:47:52;;;;;;;;;59.75;47.00;22.60;99.90;;;;;;5058238;28;9546;-71
2022/01/09 02:52:53;;;;;;;;;65.00;48.75;22.80;99.90;;;;;;5057862;28;9283;-71
2022/01/09 02:55:20;;;;;;;;;61.00;49.00;22.80;99.90;;;;;;5058617;28;8778;-69
2022/01/09 02:57:54;;;;;;;;;60.00;48.50;22.90;99.90;;;;;;5058176;28;9971;-71
2022/01/09 03:00:33;;;;;;;;;62.50;47.25;23.10;99.90;;;;;;5057654;28;10131;-71
2022/01/09 03:03:04;;;;;;;;;55.75;46.00;23.20;99.90;;;;;;5057537;28;8750;-72
2022/01/09 03:05:31;;;;;;;;;55.00;44.00;23.10;99.90;;;;;;5057526;28;8753;-72
2022/01/09 03:07:57;;;;;;;;;51.00;41.25;23.20;99.90;;;;;;5057950;28;8758;-71
2022/01/09 03:10:27;;;;;;;;;59.00;47.75;23.30;99.90;;;;;;5057915;28;8737;-71
2022/01/09 03:12:56;;;;;;;;;53.25;42.50;23.40;99.90;;;;;;5058187;28;8799;-72
2022/01/09 03:15:22;;;;;;;;;51.50;43.75;23.50;99.90;;;;;;5057455;28;8766;-71
2022/01/09 03:17:49;;;;;;;;;56.25;46.00;23.60;99.90;;;;;;5057577;28;8798;-72
2022/01/09 03:20:18;;;;;;;;;50.75;43.50;23.70;99.90;;;;;;5057390;28;9437;-72
2022/01/09 03:22:44;;;;;;;;;47.00;40.50;23.70;99.90;;;;;;5072546;28;8757;-72
2022/01/09 03:25:11;;;;;;;;;51.75;39.50;23.90;99.90;;;;;;5073471;28;9426;-72
2022/01/09 03:27:42;;;;;;;;;46.75;39.25;23.90;99.90;;;;;;5057406;28;8780;-73
2022/01/09 03:30:09;;;;;;;;;45.75;37.50;24.00;99.90;;;;;;5056134;28;8734;-72
2022/01/09 03:32:36;;;;;;;;;51.75;41.75;24.20;99.90;;;;;;5057353;28;8773;-71
2022/01/09 03:35:05;;;;;;;;;53.00;41.00;24.50;99.90;;;;;;5057252;28;9538;-72
2022/01/09 03:37:31;;;;;;;;;52.50;40.75;24.60;99.90;;;;;;5057172;28;8741;-70
2022/01/09 03:39:58;;;;;;;;;47.50;40.25;24.30;99.90;;;;;;5057671;28;8730;-72
2022/01/09 03:42:24;;;;;;;;;51.00;41.50;24.40;99.90;;;;;;5056862;28;8750;-72
2022/01/09 03:44:51;;;;;;;;;54.50;41.00;24.30;99.90;;;;;;5056594;28;8804;-72
2022/01/09 03:47:18;;;;;;;;;48.00;39.00;24.40;99.90;;;;;;5056347;28;8750;-68
2022/01/09 03:49:45;;;;;;;;;48.75;37.50;24.80;99.90;;;;;;5057688;28;9857;-72
2022/01/09 03:52:13;;;;;;;;;43.75;37.50;25.00;99.90;;;;;;5057889;28;8733;-71
2022/01/09 03:54:40;;;;;;;;;52.25;40.75;25.00;99.90;;;;;;5056643;28;8781;-71
2022/01/09 03:57:09;;;;;;;;;47.75;38.00;25.10;99.90;;;;;;5056707;28;8726;-71
2022/01/09 03:59:36;;;;;;;;;45.50;35.50;25.40;99.90;;;;;;5056547;28;8827;-72
2022/01/09 04:02:03;;;;;;;;;41.50;36.50;25.40;99.90;;;;;;5056999;28;8757;-72
2022/01/09 04:04:30;;;;;;;;;50.50;38.75;25.40;99.90;;;;;;5056435;28;9437;-71
2022/01/09 04:06:56;;;;;;;;;48.00;37.00;25.50;99.90;;;;;;5057196;28;8770;-72
2022/01/09 04:09:44;;;;;;;;;51.50;40.50;25.30;99.90;;;;;;5056382;28;8774;-73
2022/01/09 04:12:17;;;;;;;;;46.00;34.25;25.20;99.90;;;;;;5055805;28;8702;-71
2022/01/09 04:14:45;;;;;;;;;47.75;37.75;25.40;99.90;;;;;;5040166;28;8745;-71
2022/01/09 04:17:19;;;;;;;;;47.25;38.50;25.60;99.70;;;;;;5057466;28;8742;-72
2022/01/09 04:19:46;;;;;;;;;47.50;37.25;25.80;99.70;;;;;;5056946;28;8753;-71
2022/01/09 04:22:13;;;;;;;;;51.00;40.25;25.80;99.90;;;;;;5057390;28;9354;-71
2022/01/09 04:24:40;;;;;;;;;48.00;39.25;25.80;99.80;;;;;;5056588;28;8754;-71
2022/01/09 04:27:06;;;;;;;;;45.25;38.75;25.80;99.90;;;;;;5056274;28;8769;-71
2022/01/09 04:29:36;;;;;;;;;43.75;37.25;26.00;99.80;;;;;;5055131;28;8757;-71
2022/01/09 04:32:03;;;;;;;;;48.00;39.25;26.20;98.60;;;;;;5056384;28;8754;-71
2022/01/09 04:34:30;;;;;;;;;47.00;35.75;26.10;99.30;;;;;;5055646;28;8742;-71
2022/01/09 04:36:59;;;;;;;;;43.25;36.00;26.00;99.50;;;;;;5057020;28;8823;-72
2022/01/09 04:39:27;;;;;;;;;45.75;39.00;26.00;98.70;;;;;;5056423;28;9390;-71
2022/01/09 04:41:53;;;;;;;;;45.75;37.00;25.90;98.50;;;;;;5056087;28;9398;-71
2022/01/09 04:44:20;;;;;;;;;43.25;36.75;25.80;98.90;;;;;;5071650;28;8776;-70
2022/01/09 04:46:54;;;;;;;;;46.75;37.75;26.00;99.40;;;;;;5056254;28;8839;-72
2022/01/09 04:49:24;;;;;;;;;43.75;38.75;26.30;97.80;;;;;;5056672;28;8765;-70
2022/01/09 04:51:51;;;;;;;;;50.50;41.00;26.40;97.80;;;;;;5056401;28;8754;-72
2022/01/09 04:54:18;;;;;;;;;43.75;37.50;26.50;98.00;;;;;;5056041;28;8819;-70
2022/01/09 04:56:44;;;;;;;;;44.25;34.25;26.60;97.00;;;;;;5056065;28;8787;-71
2022/01/09 04:59:11;;;;;;;;;46.25;36.75;26.50;97.20;;;;;;5056311;28;8769;-71
2022/01/09 05:01:38;;;;;;;;;46.50;38.50;26.60;97.70;;;;;;5047350;28;8770;-71
2022/01/09 05:04:04;;;;;;;;;44.50;34.75;26.80;97.30;;;;;;5049834;28;8760;-71
2022/01/09 05:06:31;;;;;;;;;50.00;38.00;27.00;96.90;;;;;;5036088;28;8765;-71
2022/01/09 05:09:00;;;;;;;;;42.50;35.25;27.20;96.40;;;;;;5055934;28;8790;-71
2022/01/09 05:11:27;;;;;;;;;39.75;33.25;27.20;96.20;;;;;;5039887;28;8772;-71
2022/01/09 05:13:54;;;;;;;;;52.50;40.50;27.30;96.20;;;;;;5040154;28;8752;-71
2022/01/09 05:16:21;;;;;;;;;46.75;38.50;27.30;96.10;;;;;;5039620;28;8792;-71
2022/01/09 05:18:58;;;;;;;;;47.00;39.25;27.40;96.00;;;;;;5039884;28;8768;-71
2022/01/09 05:21:25;;;;;;;;;44.75;35.50;27.40;96.00;;;;;;5039422;28;8749;-71
2022/01/09 05:23:52;;;;;;;;;38.00;32.00;27.50;95.80;;;;;;5038797;28;8778;-72
2022/01/09 05:26:18;;;;;;;;;48.25;37.50;27.60;95.50;;;;;;5036467;28;8787;-71
2022/01/09 05:28:45;;;;;;;;;42.75;35.00;27.80;95.10;;;;;;5048101;28;8901;-72
2022/01/09 05:31:12;;;;;;;;;44.67;37.00;27.90;94.50;;;;;;5039763;28;8736;-71
2022/01/09 05:33:39;;;;;;;;;45.00;37.00;27.80;95.00;;;;;;5046307;28;8816;-70
2022/01/09 05:36:05;;;;;;;;;46.50;38.00;27.90;95.30;;;;;;5059406;28;8821;-72
2022/01/09 05:38:32;;;;;;;;;43.50;35.50;28.10;94.30;;;;;;5059053;28;9450;-71
2022/01/09 05:40:59;;;;;;;;;41.50;35.25;28.00;94.30;;;;;;5049059;28;8783;-71
2022/01/09 05:43:26;;;;;;;;;37.25;32.75;28.10;94.20;;;;;;5058171;28;8767;-71
2022/01/09 05:45:52;;;;;;;;;37.00;33.50;28.00;94.50;;;;;;5060122;28;8733;-72
2022/01/09 05:48:19;;;;;;;;;43.00;34.75;28.00;94.60;;;;;;5058883;28;8765;-68
2022/01/09 05:50:46;;;;;;;;;43.50;33.75;28.30;94.20;;;;;;5074825;28;8748;-71
2022/01/09 05:53:12;;;;;;;;;44.50;34.25;28.30;94.10;;;;;;5059508;28;8773;-70
2022/01/09 05:55:39;;;;;;;;;38.75;32.50;28.40;93.70;;;;;;5074645;28;8809;-70
2022/01/09 05:58:06;;;;;;;;;40.50;33.25;28.50;92.40;;;;;;5059938;28;8765;-70
2022/01/09 06:00:32;;;;;;;;;42.00;33.25;28.50;92.50;;;;;;5059026;28;8757;-71
2022/01/09 06:02:59;;;;;;;;;33.50;31.75;28.50;93.10;;;;;;5058103;28;8825;-71
2022/01/09 06:05:26;;;;;;;;;35.25;32.75;28.60;92.70;;;;;;5059108;28;10145;-71
2022/01/09 06:07:52;;;;;;;;;35.00;31.75;28.70;91.60;;;;;;5057882;28;8742;-71
2022/01/09 06:10:19;;;;;;;;;34.25;30.25;28.20;91.70;;;;;;5059191;28;8718;-70
2022/01/09 06:12:46;;;;;;;;;36.75;32.00;28.30;92.40;;;;;;5059057;28;8738;-71
2022/01/09 06:15:13;;;;;;;;;45.50;33.50;28.40;92.00;;;;;;5057704;28;8778;-72
2022/01/09 06:17:41;;;;;;;;;42.00;33.00;28.60;92.40;;;;;;5058594;28;9364;-71
2022/01/09 06:20:08;;;;;;;;;37.50;33.00;28.40;92.90;;;;;;5056710;28;8734;-71
2022/01/09 06:22:35;;;;;;;;;41.50;32.75;28.40;92.80;;;;;;5057810;28;8711;-72
2022/01/09 06:25:02;;;;;;;;;39.25;33.50;28.40;92.70;;;;;;5059335;28;8749;-71
2022/01/09 06:27:29;;;;;;;;;41.75;32.50;28.50;93.10;;;;;;5058574;28;8726;-71
2022/01/09 06:29:55;;;;;;;;;43.50;32.25;28.70;92.80;;;;;;5058577;28;8734;-70
2022/01/09 06:32:22;;;;;;;;;35.50;31.00;28.90;91.20;;;;;;5058127;28;9934;-71
2022/01/09 06:34:49;;;;;;;;;36.75;29.75;29.10;91.10;;;;;;5057964;28;8765;-71
2022/01/09 06:37:16;;;;;;;;;44.50;34.00;29.00;90.10;;;;;;5058019;28;8838;-70
2022/01/09 06:39:43;;;;;;;;;36.00;32.75;28.70;90.70;;;;;;5057967;28;8766;-70
2022/01/09 06:42:09;;;;;;;;;39.50;33.25;28.80;90.80;;;;;;5058428;28;8820;-71
2022/01/09 06:44:36;;;;;;;;;39.25;32.25;29.10;91.00;;;;;;5058236;28;8770;-69
2022/01/09 06:47:03;;;;;;;;;34.75;32.25;29.10;90.80;;;;;;5058696;28;8769;-72
2022/01/09 06:49:30;;;;;;;;;43.25;34.00;29.20;90.60;;;;;;5057495;28;8826;-70
2022/01/09 06:51:56;;;;;;;;;35.50;32.00;29.30;90.60;;;;;;5058465;28;8745;-70
2022/01/09 06:54:23;;;;;;;;;42.00;32.50;29.40;90.60;;;;;;5057325;28;8791;-69
2022/01/09 06:56:50;;;;;;;;;30.00;28.50;29.30;90.20;;;;;;5057925;28;8754;-70
2022/01/09 06:59:16;;;;;;;;;38.50;32.75;29.40;88.90;;;;;;5057824;28;8796;-67
2022/01/09 07:01:43;;;;;;;;;36.50;33.00;29.60;89.30;;;;;;5057934;28;8750;-70
2022/01/09 07:04:10;;;;;;;;;27.00;27.00;29.80;88.30;;;;;;5058184;28;8765;-71
2022/01/09 07:06:36;;;;;;;;;32.50;29.25;29.70;88.30;;;;;;5057638;28;8754;-70
2022/01/09 07:09:04;;;;;;;;;24.25;21.25;29.70;87.00;;;;;;5057818;28;8761;-70
2022/01/09 07:11:31;;;;;;;;;23.25;22.00;29.70;84.50;;;;;;5057373;28;9991;-70
2022/01/09 07:13:58;;;;;;;;;28.75;25.75;29.70;84.00;;;;;;5057625;28;8746;-70
2022/01/09 07:16:24;;;;;;;;;25.75;25.75;29.80;83.50;;;;;;5057872;28;8794;-70
2022/01/09 07:18:51;;;;;;;;;23.00;23.00;29.70;84.10;;;;;;5057498;28;8774;-71
2022/01/09 07:21:18;;;;;;;;;30.00;25.75;29.80;83.80;;;;;;5057462;28;8772;-69
2022/01/09 07:23:44;;;;;;;;;25.80;23.20;29.80;84.50;;;;;;5057018;28;8788;-70
2022/01/09 07:26:11;;;;;;;;;29.25;25.25;30.00;83.20;;;;;;5072558;28;8758;-72
2022/01/09 07:28:38;;;;;;;;;27.25;24.50;30.00;83.80;;;;;;5057219;28;8750;-71
2022/01/09 07:31:04;;;;;;;;;27.00;25.50;29.90;83.80;;;;;;5056310;28;8773;-71
2022/01/09 07:33:31;;;;;;;;;26.75;23.50;30.00;83.80;;;;;;5056814;28;8735;-71
2022/01/09 07:35:58;;;;;;;;;27.25;25.25;30.10;81.30;;;;;;5056167;28;8782;-71
2022/01/09 07:38:25;;;;;;;;;24.50;22.25;30.20;82.70;;;;;;5056520;28;8785;-70
2022/01/09 07:40:51;;;;;;;;;30.50;26.00;30.30;81.10;;;;;;5057324;28;9074;-71
2022/01/09 07:43:18;;;;;;;;;21.00;20.50;30.20;81.90;;;;;;5056429;28;8760;-69
2022/01/09 07:45:45;;;;;;;;;19.25;19.00;30.30;77.10;;;;;;5056074;28;8730;-71
2022/01/09 07:48:12;;;;;;;;;27.75;25.25;30.40;78.80;;;;;;5056788;28;9500;-70
2022/01/09 07:50:38;;;;;;;;;22.50;21.00;30.30;79.50;;;;;;5072151;28;8847;-69
2022/01/09 07:53:05;;;;;;;;;29.50;25.50;30.30;79.60;;;;;;5057104;28;8773;-71
2022/01/09 07:55:32;;;;;;;;;24.75;23.75;30.40;79.00;;;;;;5056739;28;8766;-71
2022/01/09 07:57:59;;;;;;;;;22.00;18.25;30.30;78.50;;;;;;5056181;28;8742;-71
2022/01/09 08:00:25;;;;;;;;;23.50;20.75;30.30;77.60;;;;;;5056212;28;8833;-70
2022/01/09 08:02:52;;;;;;;;;20.75;19.00;30.30;76.30;;;;;;5056908;28;8741;-71
2022/01/09 08:05:19;;;;;;;;;23.50;16.75;30.10;79.60;;;;;;5056842;28;8742;-70
2022/01/09 08:07:46;;;;;;;;;23.25;22.75;30.20;78.60;;;;;;5057035;28;8741;-70
2022/01/09 08:10:12;;;;;;;;;24.00;21.50;30.20;78.00;;;;;;5056176;28;8694;-72
2022/01/09 08:12:39;;;;;;;;;22.50;22.00;30.50;77.90;;;;;;5056719;28;8738;-71
2022/01/09 08:15:06;;;;;;;;;22.25;20.50;30.40;77.50;;;;;;5056643;28;8769;-71
2022/01/09 08:17:33;;;;;;;;;23.75;19.00;30.50;77.80;;;;;;5056611;28;8713;-69
2022/01/09 08:20:00;;;;;;;;;22.75;21.25;30.40;77.50;;;;;;5056566;28;8761;-71
2022/01/09 08:22:29;;;;;;;;;23.50;19.00;30.40;76.70;;;;;;5055989;28;8758;-70
2022/01/09 08:24:56;;;;;;;;;26.00;22.25;30.50;77.80;;;;;;5056422;28;9517;-70
2022/01/09 08:27:23;;;;;;;;;26.75;21.75;30.40;78.00;;;;;;5056457;28;8850;-70
2022/01/09 08:29:50;;;;;;;;;24.25;21.75;30.50;76.70;;;;;;5056582;28;8855;-70
2022/01/09 08:32:17;;;;;;;;;20.25;19.75;30.60;73.80;;;;;;5056817;28;9394;-68
2022/01/09 08:34:45;;;;;;;;;20.75;19.75;30.60;72.00;;;;;;5055077;28;8758;-70
2022/01/09 08:37:12;;;;;;;;;24.25;21.75;30.60;72.90;;;;;;5057379;28;8784;-70
2022/01/09 08:39:40;;;;;;;;;27.00;20.25;30.60;72.60;;;;;;5056717;28;8891;-70
2022/01/09 08:42:07;;;;;;;;;19.00;19.00;30.60;72.80;;;;;;5057761;28;8794;-71
2022/01/09 08:44:34;;;;;;;;;15.80;15.80;30.60;72.80;;;;;;5059085;28;8761;-70
2022/01/09 08:47:00;;;;;;;;;18.75;17.75;30.70;72.90;;;;;;5060067;28;8770;-71
2022/01/09 08:49:27;;;;;;;;;19.25;18.25;30.60;74.00;;;;;;5059953;28;8768;-69
2022/01/09 08:51:55;;;;;;;;;21.50;19.25;30.70;73.10;;;;;;5061154;28;8742;-71
2022/01/09 08:54:24;;;;;;;;;18.50;17.75;30.60;73.70;;;;;;5060185;28;8786;-70
2022/01/09 08:56:51;;;;;;;;;21.25;20.25;30.70;73.80;;;;;;5060514;28;8758;-70
2022/01/09 08:59:19;;;;;;;;;21.25;18.50;30.80;73.70;;;;;;5042458;28;8777;-69
2022/01/09 09:01:46;;;;;;;;;24.75;21.25;30.90;71.30;;;;;;5060189;28;8780;-71
2022/01/09 09:04:13;;;;;;;;;20.25;19.50;31.00;71.00;;;;;;5060741;28;8861;-71
2022/01/09 09:06:40;;;;;;;;;24.75;19.75;31.10;71.40;;;;;;5059889;28;8749;-70
2022/01/09 09:09:07;;;;;;;;;24.25;18.75;31.20;72.20;;;;;;5060404;28;8786;-70
2022/01/09 09:11:34;;;;;;;;;26.80;24.40;31.10;71.70;;;;;;5059855;28;8757;-70
2022/01/09 09:14:01;;;;;;;;;25.25;21.00;31.00;70.20;;;;;;5060392;28;8742;-71
2022/01/09 09:16:28;;;;;;;;;22.50;20.50;30.90;69.90;;;;;;5060111;28;8780;-70
2022/01/09 09:18:55;;;;;;;;;17.25;17.00;30.80;70.70;;;;;;5061029;28;8762;-70
2022/01/09 09:21:22;;;;;;;;;23.50;20.50;30.80;71.70;;;;;;5060340;28;9445;-70
2022/01/09 09:23:49;;;;;;;;;20.25;19.00;30.80;71.50;;;;;;5060367;28;8826;-70
2022/01/09 09:26:21;;;;;;;;;24.50;22.00;30.90;70.90;;;;;;5060279;28;8768;-71
2022/01/09 09:28:48;;;;;;;;;22.75;20.50;31.10;69.40;;;;;;5058787;28;8831;-71
2022/01/09 09:31:14;;;;;;;;;20.25;18.00;31.00;69.20;;;;;;5060540;28;9518;-71
2022/01/09 09:33:41;;;;;;;;;17.50;16.50;31.10;69.00;;;;;;5059499;28;9353;-70
2022/01/09 09:36:08;;;;;;;;;18.00;18.00;31.10;68.10;;;;;;5059554;28;8757;-70
2022/01/09 09:38:35;;;;;;;;;24.25;18.50;31.10;67.90;;;;;;5059701;28;8749;-70
2022/01/09 09:41:02;;;;;;;;;19.75;18.00;31.00;68.10;;;;;;5059560;28;8758;-70
2022/01/09 09:43:29;;;;;;;;;20.75;18.50;30.90;67.50;;;;;;5059553;28;8755;-70
2022/01/09 09:45:55;;;;;;;;;20.50;18.50;30.90;68.00;;;;;;5059860;28;9375;-69
2022/01/09 09:48:22;;;;;;;;;23.00;19.00;30.80;68.30;;;;;;5059069;28;8797;-70
2022/01/09 09:50:49;;;;;;;;;19.00;18.00;30.80;68.30;;;;;;5057957;28;8738;-70
2022/01/09 09:53:16;;;;;;;;;18.00;18.00;30.80;68.70;;;;;;5059274;28;8796;-70
2022/01/09 09:55:44;;;;;;;;;20.50;19.50;30.70;68.80;;;;;;5058022;28;8872;-71
2022/01/09 09:58:11;;;;;;;;;22.25;17.25;30.70;68.90;;;;;;5059933;28;8730;-71
2022/01/09 10:00:39;;;;;;;;;20.20;17.80;30.70;69.30;;;;;;5058429;28;8758;-70
2022/01/09 10:03:07;;;;;;;;;22.00;17.60;30.70;69.20;;;;;;5074493;28;8902;-70
2022/01/09 10:05:37;;;;;;;;;21.50;17.50;30.60;68.70;;;;;;5058924;28;8787;-70
2022/01/09 10:08:09;;;;;;;;;17.00;16.25;30.60;69.00;;;;;;5059310;28;8769;-70
2022/01/09 10:10:37;;;;;;;;;24.25;19.00;30.30;69.60;;;;;;5058590;28;8737;-71
2022/01/09 10:13:15;;;;;;;;;19.25;18.50;30.30;69.50;;;;;;5059863;28;8804;-71
2022/01/09 10:15:49;;;;;;;;;12.75;12.75;30.20;72.20;;;;;;5057189;28;8788;-71
2022/01/09 10:18:48;;;;;;;;;18.50;16.50;30.10;73.00;;;;;;5058805;28;8789;-71
2022/01/09 10:21:23;;;;;;;;;21.50;16.50;30.00;73.10;;;;;;5058879;28;8741;-71
2022/01/09 10:24:12;;;;;;;;;20.75;18.75;30.00;74.00;;;;;;5057899;28;8754;-71
2022/01/09 10:26:40;;;;;;;;;18.75;18.25;29.80;76.50;;;;;;5057706;28;8785;-70
2022/01/09 10:29:08;;;;;;;;;20.50;18.50;29.60;74.90;;;;;;5057502;28;8824;-71
2022/01/09 10:31:50;;;;;;;;;19.60;19.00;29.50;75.30;;;;;;5056981;28;8796;-71
2022/01/09 10:34:17;;;;;;;;;20.20;18.60;29.40;75.80;;;;;;5074365;28;8746;-69
2022/01/09 10:36:44;;;;;;;;;20.80;20.40;29.40;78.40;;;;;;5058726;28;10287;-70
2022/01/09 10:39:13;;;;;;;;;20.50;19.00;29.30;80.00;;;;;;5058303;28;9014;-70
2022/01/09 10:41:58;;;;;;;;;20.00;20.00;29.20;80.20;;;;;;5058505;28;8758;-70
2022/01/09 10:44:35;;;;;;;;;18.75;17.00;29.10;79.80;;;;;;5057927;28;8854;-69
2022/01/09 10:47:12;;;;;;;;;26.25;22.75;29.10;81.40;;;;;;5056939;28;8789;-70
2022/01/09 10:49:46;;;;;;;;;28.75;24.75;29.00;84.40;;;;;;5057936;28;8891;-70
2022/01/09 10:52:16;;;;;;;;;33.25;27.75;28.90;81.90;;;;;;5058817;28;8765;-70
2022/01/09 10:54:46;;;;;;;;;27.50;25.00;28.70;80.90;;;;;;5058009;28;8822;-70
2022/01/09 10:57:17;;;;;;;;;32.25;29.00;28.50;80.20;;;;;;5063428;28;8760;-70
2022/01/09 10:59:44;;;;;;;;;30.50;25.50;28.40;79.40;;;;;;5057408;28;8789;-70
2022/01/09 11:02:12;;;;;;;;;31.50;25.25;28.30;78.90;;;;;;5058044;28;8950;-70
2022/01/09 11:04:48;;;;;;;;;30.00;27.00;28.20;78.60;;;;;;5057163;28;8762;-71
2022/01/09 11:07:15;;;;;;;;;32.75;29.00;28.10;79.20;;;;;;5058552;28;8812;-71
2022/01/09 11:09:46;;;;;;;;;31.75;29.50;28.00;79.60;;;;;;5057998;28;8750;-71
2022/01/09 11:12:19;;;;;;;;;34.75;30.75;27.80;80.00;;;;;;5057870;28;8773;-70
2022/01/09 11:14:48;;;;;;;;;39.75;30.25;27.80;80.40;;;;;;5057710;28;8765;-70
2022/01/09 11:17:15;;;;;;;;;30.00;28.25;27.60;81.00;;;;;;5057798;28;8758;-71
2022/01/09 11:19:42;;;;;;;;;30.75;30.00;27.50;81.80;;;;;;5056097;28;8912;-70
2022/01/09 11:22:10;;;;;;;;;33.75;30.50;27.30;82.40;;;;;;5057957;28;8790;-71
2022/01/09 11:24:43;;;;;;;;;43.25;34.00;27.20;83.50;;;;;;5056031;28;8820;-70
2022/01/09 11:27:22;;;;;;;;;43.25;32.75;27.10;84.10;;;;;;5057589;28;8840;-70
2022/01/09 11:30:03;;;;;;;;;39.75;32.25;27.00;84.60;;;;;;5057441;28;8758;-71
2022/01/09 11:32:48;;;;;;;;;53.50;39.25;27.00;84.80;;;;;;5056520;28;8757;-71
2022/01/09 11:35:18;;;;;;;;;50.50;39.50;26.90;86.20;;;;;;5057312;28;9172;-70
2022/01/09 11:38:15;;;;;;;;;50.75;42.00;26.70;90.00;;;;;;5057207;28;8789;-70
2022/01/09 11:40:41;;;;;;;;;55.50;41.00;26.60;89.00;;;;;;5057495;28;8734;-71
2022/01/09 11:43:09;;;;;;;;;57.25;45.00;26.50;90.40;;;;;;5056640;28;8742;-70
2022/01/09 11:45:58;;;;;;;;;69.40;53.40;26.20;90.40;;;;;;5057033;28;8785;-71
2022/01/09 11:49:06;;;;;;;;;61.20;49.20;26.20;90.80;;;;;;5056629;28;8758;-71
2022/01/09 11:51:34;;;;;;;;;73.40;57.20;26.20;91.20;;;;;;5056606;28;9171;-71
2022/01/09 11:54:12;;;;;;;;;71.00;54.40;26.20;91.80;;;;;;5056915;28;8880;-70
2022/01/09 11:56:53;;;;;;;;;76.20;57.00;26.20;92.10;;;;;;5056799;28;8785;-70
2022/01/09 11:59:48;;;;;;;;;78.60;58.20;26.20;93.40;;;;;;5056351;28;8765;-69
2022/01/09 12:02:18;;;;;;;;;80.40;62.20;26.00;94.50;;;;;;5057828;28;8888;-70
2022/01/09 12:04:48;;;;;;;;;76.20;57.00;25.90;96.40;;;;;;5056698;28;8869;-70
2022/01/09 12:07:36;;;;;;;;;72.60;54.00;25.70;95.80;;;;;;5057756;28;8852;-72
2022/01/09 12:10:24;;;;;;;;;61.75;45.25;25.70;95.10;;;;;;5072720;28;8757;-71
2022/01/09 12:12:53;;;;;;;;;58.75;45.50;25.70;95.40;;;;;;5057265;28;8781;-70
2022/01/09 12:15:52;;;;;;;;;63.00;47.00;25.70;95.20;;;;;;5055170;28;8774;-69
2022/01/09 12:18:42;;;;;;;;;60.25;46.50;25.60;95.40;;;;;;4991182;28;8853;-67
2022/01/09 12:21:10;;;;;;;;;49.25;37.25;25.60;96.40;;;;;;5056506;28;8769;-70
2022/01/09 12:23:37;;;;;;;;;58.50;47.00;25.50;96.10;;;;;;5056330;28;8785;-70
2022/01/09 12:26:04;;;;;;;;;53.50;42.50;25.50;95.90;;;;;;5056778;28;8762;-70
2022/01/09 12:28:38;;;;;;;;;55.25;45.00;25.40;95.90;;;;;;5056728;28;8722;-70
2022/01/09 12:31:05;;;;;;;;;63.25;48.00;25.40;96.10;;;;;;5057579;28;8788;-70
2022/01/09 12:33:32;;;;;;;;;106.00;96.00;25.50;95.40;;;;;;5056156;28;9415;-70
2022/01/09 12:36:11;;;;;;;;;62.00;47.75;25.40;94.50;;;;;;5056612;28;8801;-70
2022/01/09 12:38:45;;;;;;;;;58.00;45.50;25.40;94.30;;;;;;5056011;28;8789;-70
2022/01/09 12:41:15;;;;;;;;;66.00;51.00;25.50;94.10;;;;;;5056738;28;8789;-70
2022/01/09 12:43:42;;;;;;;;;63.20;46.40;25.50;95.80;;;;;;5056304;28;8754;-71
2022/01/09 12:46:10;;;;;;;;;62.40;49.00;25.50;96.60;;;;;;5055455;28;8750;-70